Time;durP1;ratioP1;P1;durP2;ratioP2;P2;SDS_P1;SDS_P2;PMS_P1;PMS_P2;Temp;Humidity;BMP_temperature;BMP_pressure;BME280_temperature;BME280_humidity;BME280_pressure;Samples;Min_cycle;Max_cycle;Signal;HPM_P1;HPM_P2
2021/10/11 00:01:52;;;;;;;39.35;22.67;;;;;;;;;;4974376;28;20929;-90
2021/10/11 00:04:17;;;;;;;48.27;27.47;;;;;;;;;;5006894;28;20025;-90
2021/10/11 00:06:42;;;;;;;44.10;23.77;;;;;;;;;;5006753;28;20028;-89
2021/10/11 00:09:08;;;;;;;42.60;22.67;;;;;;;;;;4974161;28;20321;-89
2021/10/11 00:11:33;;;;;;;50.63;30.58;;;;;;;;;;4979430;28;20284;-90
2021/10/11 00:13:58;;;;;;;50.08;26.70;;;;;;;;;;4974317;28;20023;-89
2021/10/11 00:16:24;;;;;;;45.78;26.05;;;;;;;;;;4973979;28;20073;-89
2021/10/11 00:18:49;;;;;;;40.65;24.00;;;;;;;;;;4991611;28;20018;-89
2021/10/11 00:21:16;;;;;;;51.55;27.75;;;;;;;;;;4974019;28;20033;-89
2021/10/11 00:23:42;;;;;;;44.17;26.17;;;;;;;;;;4974213;28;20022;-89
2021/10/11 00:26:07;;;;;;;51.20;27.90;;;;;;;;;;4991554;28;20029;-89
2021/10/11 00:28:32;;;;;;;42.42;26.48;;;;;;;;;;4991532;28;20038;-90
2021/10/11 00:30:58;;;;;;;51.42;29.35;;;;;;;;;;5001606;28;20105;-89
2021/10/11 00:33:23;;;;;;;41.40;25.52;;;;;;;;;;5006447;28;20076;-89
2021/10/11 00:35:48;;;;;;;48.40;28.70;;;;;;;;;;4973854;28;20026;-89
2021/10/11 00:38:13;;;;;;;42.08;25.27;;;;;;;;;;4991368;28;20036;-89
2021/10/11 00:40:39;;;;;;;45.33;28.70;;;;;;;;;;4991278;28;20061;-89
2021/10/11 00:43:04;;;;;;;36.90;26.47;;;;;;;;;;4990866;28;20058;-89
2021/10/11 00:45:29;;;;;;;57.70;32.30;;;;;;;;;;4973147;28;20258;-89
2021/10/11 00:47:54;;;;;;;50.35;30.02;;;;;;;;;;4991256;28;20297;-89
2021/10/11 00:50:20;;;;;;;41.88;25.33;;;;;;;;;;4991234;28;20050;-89
2021/10/11 00:52:45;;;;;;;52.17;28.38;;;;;;;;;;4994136;28;20026;-89
2021/10/11 00:55:10;;;;;;;46.10;25.83;;;;;;;;;;5006333;28;20026;-90
2021/10/11 00:57:36;;;;;;;35.37;21.80;;;;;;;;;;4991172;28;20057;-90
2021/10/11 01:00:01;;;;;;;49.27;24.97;;;;;;;;;;4991389;28;20763;-90
2021/10/11 01:02:26;;;;;;;33.83;17.83;;;;;;;;;;4991157;28;20010;-89
2021/10/11 01:04:52;;;;;;;48.07;24.27;;;;;;;;;;4973503;28;20386;-89
2021/10/11 01:07:17;;;;;;;27.25;14.65;;;;;;;;;;5005915;28;20262;-89
2021/10/11 01:09:42;;;;;;;34.67;18.20;;;;;;;;;;5006081;28;20031;-89
2021/10/11 01:12:07;;;;;;;27.98;13.23;;;;;;;;;;4976853;28;20269;-89
2021/10/11 01:14:32;;;;;;;32.53;14.23;;;;;;;;;;4973306;28;20018;-89
2021/10/11 01:16:58;;;;;;;33.58;14.95;;;;;;;;;;4973632;28;20727;-89
2021/10/11 01:19:23;;;;;;;25.67;12.40;;;;;;;;;;5006007;28;20062;-90
2021/10/11 01:21:48;;;;;;;24.42;10.38;;;;;;;;;;5005839;28;20018;-89
2021/10/11 01:24:13;;;;;;;39.90;18.30;;;;;;;;;;4990968;28;20027;-90
2021/10/11 01:26:43;;;;;;;26.23;12.65;;;;;;;;;;4973520;28;20289;-89
2021/10/11 01:29:09;;;;;;;33.42;15.13;;;;;;;;;;4974072;28;20034;-89
2021/10/11 01:31:35;;;;;;;26.15;13.10;;;;;;;;;;4992935;28;20023;-89
2021/10/11 01:34:00;;;;;;;24.08;9.60;;;;;;;;;;4993738;28;20359;-89
2021/10/11 01:36:26;;;;;;;23.02;12.30;;;;;;;;;;4997803;28;20019;-89
2021/10/11 01:38:55;;;;;;;25.75;10.52;;;;;;;;;;4993775;28;20470;-89
2021/10/11 01:41:20;;;;;;;24.20;10.70;;;;;;;;;;4975417;28;20029;-90
2021/10/11 01:43:45;;;;;;;26.27;11.02;;;;;;;;;;4973213;28;20022;-90
2021/10/11 01:46:10;;;;;;;19.90;11.07;;;;;;;;;;4990616;28;20105;-89
2021/10/11 01:48:36;;;;;;;19.20;10.43;;;;;;;;;;4973101;28;21347;-89
2021/10/11 01:51:01;;;;;;;23.03;11.23;;;;;;;;;;4973049;28;20023;-89
2021/10/11 01:53:26;;;;;;;31.30;12.73;;;;;;;;;;4973127;28;20069;-89
2021/10/11 01:55:51;;;;;;;20.40;11.47;;;;;;;;;;4998511;28;20436;-89
2021/10/11 01:58:16;;;;;;;24.90;12.17;;;;;;;;;;4994076;28;20258;-90
2021/10/11 02:00:41;;;;;;;26.67;9.87;;;;;;;;;;4976451;28;20265;-89
2021/10/11 02:03:07;;;;;;;21.70;9.00;;;;;;;;;;4976464;28;20262;-89
2021/10/11 02:05:33;;;;;;;18.88;7.53;;;;;;;;;;4976367;28;20864;-89
2021/10/11 02:07:58;;;;;;;21.88;8.45;;;;;;;;;;4976166;28;20042;-90
2021/10/11 02:10:23;;;;;;;23.40;9.82;;;;;;;;;;4976432;28;20032;-90
2021/10/11 02:12:48;;;;;;;18.63;8.30;;;;;;;;;;5009029;28;20025;-90
2021/10/11 02:15:14;;;;;;;19.60;8.73;;;;;;;;;;4976237;28;20273;-90
2021/10/11 02:17:39;;;;;;;28.23;8.13;;;;;;;;;;4996605;28;20102;-90
2021/10/11 02:20:05;;;;;;;18.17;7.73;;;;;;;;;;5006113;28;20364;-90
2021/10/11 02:22:30;;;;;;;24.83;8.02;;;;;;;;;;4976319;28;20270;-89
2021/10/11 02:24:55;;;;;;;17.05;7.55;;;;;;;;;;4976117;28;20114;-89
2021/10/11 02:27:20;;;;;;;24.13;7.40;;;;;;;;;;4993648;28;20026;-89
2021/10/11 02:29:46;;;;;;;18.30;7.63;;;;;;;;;;4975851;28;20269;-89
2021/10/11 02:32:11;;;;;;;16.13;7.45;;;;;;;;;;4976018;28;20320;-89
2021/10/11 02:34:36;;;;;;;20.87;7.00;;;;;;;;;;4993610;28;20022;-89
2021/10/11 02:37:01;;;;;;;21.60;7.07;;;;;;;;;;4980470;28;20054;-90
2021/10/11 02:39:26;;;;;;;17.42;6.43;;;;;;;;;;4993289;28;20274;-90
2021/10/11 02:41:51;;;;;;;19.23;6.40;;;;;;;;;;4993363;28;20065;-89
2021/10/11 02:44:17;;;;;;;24.97;7.67;;;;;;;;;;5008296;28;20664;-89
2021/10/11 02:46:42;;;;;;;19.70;6.88;;;;;;;;;;5008258;28;20022;-90
2021/10/11 02:49:07;;;;;;;19.60;6.17;;;;;;;;;;4975695;28;20045;-89
2021/10/11 02:51:32;;;;;;;21.02;7.55;;;;;;;;;;4993190;28;20015;-89
2021/10/11 02:53:57;;;;;;;17.80;5.73;;;;;;;;;;5007960;28;20371;-89
2021/10/11 02:56:23;;;;;;;19.73;5.57;;;;;;;;;;5007907;28;20293;-89
2021/10/11 02:58:48;;;;;;;13.82;5.15;;;;;;;;;;5002370;28;20006;-89
2021/10/11 03:01:14;;;;;;;21.50;6.23;;;;;;;;;;4975378;28;20088;-89
2021/10/11 03:03:39;;;;;;;19.00;5.55;;;;;;;;;;4975478;28;20277;-89
2021/10/11 03:06:05;;;;;;;18.13;5.57;;;;;;;;;;4974950;28;20022;-89
2021/10/11 03:08:33;;;;;;;19.48;6.80;;;;;;;;;;4974654;28;20068;-90
2021/10/11 03:10:59;;;;;;;15.70;5.40;;;;;;;;;;4975238;28;20030;-89
2021/10/11 03:13:24;;;;;;;23.58;6.45;;;;;;;;;;4992839;28;20089;-89
2021/10/11 03:15:49;;;;;;;18.90;5.65;;;;;;;;;;4992774;28;20022;-89
2021/10/11 03:18:14;;;;;;;25.07;5.63;;;;;;;;;;4975198;28;20022;-89
2021/10/11 03:20:40;;;;;;;16.95;4.93;;;;;;;;;;5011682;28;20788;-89
2021/10/11 03:23:05;;;;;;;27.43;5.77;;;;;;;;;;4992632;28;20069;-89
2021/10/11 03:25:30;;;;;;;17.63;5.13;;;;;;;;;;4975030;28;20262;-89
2021/10/11 03:27:55;;;;;;;19.52;5.40;;;;;;;;;;5007350;28;20380;-90
2021/10/11 03:30:20;;;;;;;14.32;4.28;;;;;;;;;;4974965;28;20030;-90
2021/10/11 03:32:46;;;;;;;16.63;4.82;;;;;;;;;;4992468;28;20496;-89
2021/10/11 03:35:11;;;;;;;25.97;5.33;;;;;;;;;;4974753;28;20056;-89
2021/10/11 03:37:36;;;;;;;19.23;5.10;;;;;;;;;;5007248;28;20258;-89
2021/10/11 03:40:01;;;;;;;20.47;4.93;;;;;;;;;;4992265;28;20022;-89
2021/10/11 03:42:27;;;;;;;22.38;4.60;;;;;;;;;;4975005;28;20274;-89
2021/10/11 03:44:52;;;;;;;16.80;5.23;;;;;;;;;;4982614;28;20005;-89
2021/10/11 03:47:17;;;;;;;13.73;3.97;;;;;;;;;;5002259;28;20825;-89
2021/10/11 03:49:42;;;;;;;18.85;4.85;;;;;;;;;;5007060;28;20417;-89
2021/10/11 03:52:08;;;;;;;11.20;3.15;;;;;;;;;;4992153;28;20022;-89
2021/10/11 03:54:33;;;;;;;13.25;2.92;;;;;;;;;;4974390;28;20470;-89
2021/10/11 03:56:58;;;;;;;19.47;3.73;;;;;;;;;;4991972;28;20058;-89
2021/10/11 03:59:23;;;;;;;17.80;2.88;;;;;;;;;;4991976;28;20276;-89
2021/10/11 04:01:48;;;;;;;15.83;3.00;;;;;;;;;;5006979;28;20044;-90
2021/10/11 04:04:14;;;;;;;16.17;3.13;;;;;;;;;;4993600;28;20258;-90
2021/10/11 04:06:39;;;;;;;17.95;3.33;;;;;;;;;;5014242;28;20133;-90
2021/10/11 04:09:05;;;;;;;15.15;2.95;;;;;;;;;;4974238;28;20482;-89
2021/10/11 04:11:31;;;;;;;16.17;3.20;;;;;;;;;;4974074;28;20022;-89
2021/10/11 04:13:56;;;;;;;18.40;3.08;;;;;;;;;;5006970;28;20026;-90
2021/10/11 04:16:22;;;;;;;11.65;2.95;;;;;;;;;;4991695;28;20097;-89
2021/10/11 04:18:47;;;;;;;12.02;2.85;;;;;;;;;;5006663;28;20135;-89
2021/10/11 04:21:13;;;;;;;17.67;3.13;;;;;;;;;;4992181;28;20022;-90
2021/10/11 04:23:38;;;;;;;11.55;2.85;;;;;;;;;;5119719;23;20382;-89
2021/10/11 04:26:04;;;;;;;13.35;2.63;;;;;;;;;;5014475;28;20065;-89
2021/10/11 04:28:29;;;;;;;8.38;2.47;;;;;;;;;;4986123;28;20031;-89
2021/10/11 04:30:54;;;;;;;11.80;3.35;;;;;;;;;;4974047;28;20045;-89
2021/10/11 04:33:21;;;;;;;9.20;2.70;;;;;;;;;;4971306;28;20023;-89
2021/10/11 04:35:46;;;;;;;16.20;3.08;;;;;;;;;;4954470;28;20566;-89
2021/10/11 04:38:12;;;;;;;18.30;3.22;;;;;;;;;;4954150;28;20022;-89
2021/10/11 04:40:37;;;;;;;18.42;3.22;;;;;;;;;;4970044;28;20098;-89
2021/10/11 04:43:02;;;;;;;18.13;2.85;;;;;;;;;;4954040;28;20030;-89
2021/10/11 04:45:28;;;;;;;12.43;2.38;;;;;;;;;;4971247;28;20034;-89
2021/10/11 04:47:54;;;;;;;17.08;2.67;;;;;;;;;;4970183;28;20046;-89
2021/10/11 04:50:19;;;;;;;15.48;3.47;;;;;;;;;;4953895;28;20023;-89
2021/10/11 04:52:44;;;;;;;18.13;3.23;;;;;;;;;;4955046;28;20379;-89
2021/10/11 04:55:10;;;;;;;14.67;3.23;;;;;;;;;;4990750;28;20029;-89
2021/10/11 04:57:35;;;;;;;21.95;3.75;;;;;;;;;;4973117;28;20372;-89
2021/10/11 05:00:00;;;;;;;17.00;3.03;;;;;;;;;;4973168;28;20065;-90
2021/10/11 05:02:25;;;;;;;15.67;3.30;;;;;;;;;;4973274;28;20336;-89
2021/10/11 05:04:50;;;;;;;19.17;3.22;;;;;;;;;;4973370;28;20354;-89
2021/10/11 05:07:16;;;;;;;15.90;2.97;;;;;;;;;;4991051;28;20517;-89
2021/10/11 05:09:41;;;;;;;17.02;2.70;;;;;;;;;;5006015;28;20399;-89
2021/10/11 05:12:06;;;;;;;16.60;3.17;;;;;;;;;;4992602;28;20470;-89
2021/10/11 05:14:31;;;;;;;16.30;4.23;;;;;;;;;;5010417;28;20263;-89
2021/10/11 05:16:56;;;;;;;18.63;3.33;;;;;;;;;;4992337;28;20275;-90
2021/10/11 05:19:26;;;;;;;12.73;3.05;;;;;;;;;;4992665;28;20029;-89
2021/10/11 05:21:52;;;;;;;20.48;3.47;;;;;;;;;;4991977;28;20022;-90
2021/10/11 05:24:17;;;;;;;14.82;3.00;;;;;;;;;;4972907;28;20054;-90
2021/10/11 05:26:43;;;;;;;15.75;3.25;;;;;;;;;;4973130;28;20146;-90
2021/10/11 05:29:08;;;;;;;15.05;2.33;;;;;;;;;;4972748;28;20030;-89
2021/10/11 05:31:33;;;;;;;12.27;3.80;;;;;;;;;;4993519;28;20030;-89
2021/10/11 05:33:59;;;;;;;16.20;3.17;;;;;;;;;;4976997;28;20297;-89
2021/10/11 05:36:24;;;;;;;18.35;2.90;;;;;;;;;;4976418;28;20050;-89
2021/10/11 05:38:49;;;;;;;15.25;2.58;;;;;;;;;;4976411;28;20018;-90
2021/10/11 05:41:14;;;;;;;17.98;2.95;;;;;;;;;;4976479;28;20028;-90
2021/10/11 05:43:40;;;;;;;16.48;3.10;;;;;;;;;;4976449;28;20041;-89
2021/10/11 05:46:05;;;;;;;18.08;2.47;;;;;;;;;;4993914;28;20079;-89
2021/10/11 05:48:30;;;;;;;18.33;3.47;;;;;;;;;;4993889;28;20068;-89
2021/10/11 05:50:55;;;;;;;12.50;2.75;;;;;;;;;;4976151;28;20037;-89
2021/10/11 05:53:21;;;;;;;15.57;2.58;;;;;;;;;;4993943;28;20550;-90
2021/10/11 05:55:46;;;;;;;19.25;2.95;;;;;;;;;;4987515;28;20117;-89
2021/10/11 05:58:11;;;;;;;22.40;3.15;;;;;;;;;;4975425;28;20109;-90
2021/10/11 06:00:39;;;;;;;14.02;2.47;;;;;;;;;;4976175;28;20121;-90
2021/10/11 06:03:04;;;;;;;16.00;3.53;;;;;;;;;;4993647;28;20034;-90
2021/10/11 06:05:32;;;;;;;14.60;2.70;;;;;;;;;;4975979;28;20019;-89
2021/10/11 06:07:57;;;;;;;17.67;2.67;;;;;;;;;;4993609;28;20046;-89
2021/10/11 06:10:22;;;;;;;17.20;2.87;;;;;;;;;;4976040;28;20180;-89
2021/10/11 06:12:47;;;;;;;14.77;3.40;;;;;;;;;;4976051;28;20753;-89
2021/10/11 06:15:13;;;;;;;18.60;2.73;;;;;;;;;;4993309;28;20265;-89
2021/10/11 06:17:38;;;;;;;15.38;2.95;;;;;;;;;;4993376;28;20285;-89
2021/10/11 06:20:05;;;;;;;11.45;2.42;;;;;;;;;;4975620;28;20018;-89
2021/10/11 06:22:31;;;;;;;10.95;2.70;;;;;;;;;;4975787;28;20041;-89
2021/10/11 06:24:56;;;;;;;12.23;2.58;;;;;;;;;;4975466;28;20050;-89
2021/10/11 06:27:22;;;;;;;11.73;2.20;;;;;;;;;;4979778;28;20018;-89
2021/10/11 06:29:47;;;;;;;11.87;1.70;;;;;;;;;;4991829;28;20027;-89
2021/10/11 06:32:12;;;;;;;15.00;3.30;;;;;;;;;;4991782;28;20288;-89
2021/10/11 06:34:37;;;;;;;17.08;2.95;;;;;;;;;;4994855;28;20014;-89
2021/10/11 06:37:03;;;;;;;15.68;2.47;;;;;;;;;;4995147;28;20054;-89
2021/10/11 06:39:28;;;;;;;11.18;2.13;;;;;;;;;;4994698;28;20108;-89
2021/10/11 06:41:53;;;;;;;13.90;2.60;;;;;;;;;;5012468;28;20026;-89
2021/10/11 06:44:18;;;;;;;18.48;3.05;;;;;;;;;;4994983;28;20033;-89
2021/10/11 06:46:45;;;;;;;15.13;3.47;;;;;;;;;;4994842;28;20022;-90
2021/10/11 06:49:11;;;;;;;22.80;3.75;;;;;;;;;;5011184;28;20026;-89
2021/10/11 06:51:36;;;;;;;15.23;2.88;;;;;;;;;;4994956;28;20022;-89
2021/10/11 06:54:01;;;;;;;15.27;2.47;;;;;;;;;;4990120;28;20474;-89
2021/10/11 06:56:26;;;;;;;17.40;2.90;;;;;;;;;;5012240;28;20032;-89
2021/10/11 06:58:51;;;;;;;16.17;2.80;;;;;;;;;;4982768;28;20276;-89
2021/10/11 07:01:17;;;;;;;15.17;3.67;;;;;;;;;;4955471;28;20324;-89
2021/10/11 07:03:42;;;;;;;16.88;2.88;;;;;;;;;;4955825;28;20274;-89
2021/10/11 07:06:13;;;;;;;17.15;2.47;;;;;;;;;;4973101;28;20022;-89
2021/10/11 07:08:38;;;;;;;15.23;3.70;;;;;;;;;;4955611;28;20163;-90
2021/10/11 07:11:04;;;;;;;14.03;2.27;;;;;;;;;;4972748;28;20140;-90
2021/10/11 07:13:29;;;;;;;15.82;2.80;;;;;;;;;;4955828;28;20050;-89
2021/10/11 07:15:55;;;;;;;13.83;2.03;;;;;;;;;;4955267;28;20470;-89
2021/10/11 07:18:21;;;;;;;11.27;2.58;;;;;;;;;;4955377;28;20324;-89
2021/10/11 07:20:46;;;;;;;11.50;2.22;;;;;;;;;;4970874;28;20041;-89
2021/10/11 07:23:12;;;;;;;9.70;2.20;;;;;;;;;;4974669;28;20411;-90
2021/10/11 07:25:38;;;;;;;10.70;2.72;;;;;;;;;;4973991;28;20278;-90
2021/10/11 07:28:03;;;;;;;15.63;2.75;;;;;;;;;;4964297;28;20043;-89
2021/10/11 07:30:29;;;;;;;9.57;2.40;;;;;;;;;;4972812;28;20023;-90
2021/10/11 07:32:54;;;;;;;12.60;2.63;;;;;;;;;;4956642;28;20242;-90
2021/10/11 07:37:58;;;;;;;20.30;2.63;;;;;;;;;;5073197;23;20053;-88
2021/10/11 07:40:23;;;;;;;23.13;3.20;;;;;;;;;;5040312;28;20021;-88
2021/10/11 07:42:49;;;;;;;13.82;3.42;;;;;;;;;;5043297;28;20089;-88
2021/10/11 07:45:14;;;;;;;10.45;2.58;;;;;;;;;;5036057;28;20021;-88
2021/10/11 07:47:39;;;;;;;14.05;2.58;;;;;;;;;;5036880;28;20033;-89
2021/10/11 07:50:05;;;;;;;14.15;2.67;;;;;;;;;;5032867;28;20032;-89
2021/10/11 07:52:30;;;;;;;17.55;2.80;;;;;;;;;;5032331;28;20027;-89
2021/10/11 07:54:55;;;;;;;18.07;2.87;;;;;;;;;;5032664;28;20456;-89
2021/10/11 07:57:21;;;;;;;12.60;2.23;;;;;;;;;;5032870;28;20329;-88
2021/10/11 07:59:46;;;;;;;14.18;2.50;;;;;;;;;;5050714;28;20262;-89
2021/10/11 08:02:11;;;;;;;15.27;3.13;;;;;;;;;;5032022;28;20028;-89
2021/10/11 08:04:36;;;;;;;15.53;2.33;;;;;;;;;;5043513;28;20275;-89
2021/10/11 08:07:02;;;;;;;17.05;3.13;;;;;;;;;;5026040;28;20315;-89
2021/10/11 08:09:27;;;;;;;17.48;2.58;;;;;;;;;;5026124;28;20025;-89
2021/10/11 08:11:52;;;;;;;14.52;2.80;;;;;;;;;;5029182;28;20036;-89
2021/10/11 08:14:17;;;;;;;21.38;2.90;;;;;;;;;;5013601;28;20021;-88
2021/10/11 08:16:43;;;;;;;12.68;3.72;;;;;;;;;;5014949;28;20053;-89
2021/10/11 08:19:09;;;;;;;24.10;3.50;;;;;;;;;;5012883;28;20020;-88
2021/10/11 08:21:34;;;;;;;13.77;2.70;;;;;;;;;;5030504;28;20171;-89
2021/10/11 08:24:00;;;;;;;15.55;2.45;;;;;;;;;;5030688;28;20057;-89
2021/10/11 08:26:25;;;;;;;12.68;2.17;;;;;;;;;;5012298;28;20707;-88
2021/10/11 08:28:51;;;;;;;10.98;2.40;;;;;;;;;;5029973;28;20037;-88
2021/10/11 08:31:19;;;;;;;9.65;2.42;;;;;;;;;;5030953;28;20505;-89
2021/10/11 08:33:44;;;;;;;6.57;1.92;;;;;;;;;;5035563;28;20025;-87
2021/10/11 08:36:13;;;;;;;9.27;1.90;;;;;;;;;;5041286;28;20060;-88
2021/10/11 08:38:41;;;;;;;10.32;1.95;;;;;;;;;;5050148;28;20017;-87
2021/10/11 08:41:07;;;;;;;9.05;2.05;;;;;;;;;;5044171;28;20131;-88
2021/10/11 08:43:33;;;;;;;8.50;1.45;;;;;;;;;;5012680;28;20045;-90
2021/10/11 08:45:59;;;;;;;8.45;1.80;;;;;;;;;;5029803;28;20026;-88
2021/10/11 08:48:24;;;;;;;9.23;1.92;;;;;;;;;;5029872;28;20045;-89
2021/10/11 08:50:50;;;;;;;9.47;2.00;;;;;;;;;;5012276;28;20053;-88
2021/10/11 08:53:15;;;;;;;9.45;1.83;;;;;;;;;;5012346;28;20371;-88
2021/10/11 08:55:41;;;;;;;7.85;1.90;;;;;;;;;;5030069;28;20466;-88
2021/10/11 08:58:09;;;;;;;9.93;1.88;;;;;;;;;;5012755;28;20148;-88
2021/10/11 09:00:36;;;;;;;9.70;2.00;;;;;;;;;;5030397;28;20089;-88
2021/10/11 09:03:02;;;;;;;7.45;1.75;;;;;;;;;;5029707;28;20761;-89
2021/10/11 09:05:38;;;;;;;7.53;2.17;;;;;;;;;;5031195;28;20061;-88
2021/10/11 09:08:14;;;;;;;5.47;1.65;;;;;;;;;;5034048;28;20025;-88
2021/10/11 09:10:59;;;;;;;14.02;1.90;;;;;;;;;;5015843;28;20021;-88
2021/10/11 09:13:29;;;;;;;9.82;2.35;;;;;;;;;;5015774;28;20075;-88
2021/10/11 09:16:05;;;;;;;12.00;2.22;;;;;;;;;;5015805;28;20028;-88
2021/10/11 09:18:30;;;;;;;11.13;2.63;;;;;;;;;;5015547;28;20477;-88
2021/10/11 09:20:56;;;;;;;10.13;2.13;;;;;;;;;;5015549;28;20079;-88
2021/10/11 09:23:23;;;;;;;22.45;3.17;;;;;;;;;;5034530;28;20381;-89
2021/10/11 09:25:49;;;;;;;13.98;3.38;;;;;;;;;;5019012;28;20028;-88
2021/10/11 09:28:17;;;;;;;13.00;3.67;;;;;;;;;;5049766;28;20077;-88
2021/10/11 09:30:45;;;;;;;11.45;2.65;;;;;;;;;;5059912;28;20032;-89
2021/10/11 09:33:12;;;;;;;16.20;2.67;;;;;;;;;;5040475;28;20009;-89
2021/10/11 09:35:37;;;;;;;10.77;2.47;;;;;;;;;;5058228;28;20017;-89
2021/10/11 09:38:03;;;;;;;13.43;2.17;;;;;;;;;;5067684;28;20047;-89
2021/10/11 09:40:38;;;;;;;12.75;2.38;;;;;;;;;;5035314;28;20701;-89
2021/10/11 09:43:10;;;;;;;14.60;2.90;;;;;;;;;;5035368;28;20020;-88
2021/10/11 09:45:35;;;;;;;15.23;2.60;;;;;;;;;;5053150;28;20032;-88
2021/10/11 09:48:04;;;;;;;14.43;2.90;;;;;;;;;;5034879;28;20036;-88
2021/10/11 09:50:29;;;;;;;16.25;3.60;;;;;;;;;;5052935;28;20791;-88
2021/10/11 09:52:54;;;;;;;11.40;2.67;;;;;;;;;;5035244;28;20060;-88
2021/10/11 09:55:19;;;;;;;16.63;3.27;;;;;;;;;;5036347;28;20461;-88
2021/10/11 09:57:45;;;;;;;18.97;2.73;;;;;;;;;;5054335;28;20334;-89
2021/10/11 10:00:11;;;;;;;22.77;4.25;;;;;;;;;;5036524;28;20263;-88
2021/10/11 10:02:36;;;;;;;20.42;3.47;;;;;;;;;;5035464;28;20059;-89
2021/10/11 10:05:02;;;;;;;19.15;3.47;;;;;;;;;;5052793;28;20021;-88
2021/10/11 10:07:30;;;;;;;23.33;3.55;;;;;;;;;;5035133;28;20028;-87
2021/10/11 10:09:56;;;;;;;17.60;3.65;;;;;;;;;;5035866;28;20048;-88
2021/10/11 10:22:48;;;;;;;13.07;2.53;;;;;;;;;;3260347;22;20811;-88
2021/10/11 10:25:13;;;;;;;14.38;2.92;;;;;;;;;;5034769;28;20017;-88
2021/10/11 10:27:40;;;;;;;15.30;3.80;;;;;;;;;;5034438;28;20116;-88
2021/10/11 10:30:17;;;;;;;16.90;3.47;;;;;;;;;;5035687;28;20276;-88
2021/10/11 10:32:59;;;;;;;13.98;2.42;;;;;;;;;;5034906;28;20075;-88
2021/10/11 10:35:26;;;;;;;14.20;2.65;;;;;;;;;;5017489;28;20048;-88
2021/10/11 10:37:51;;;;;;;13.18;2.17;;;;;;;;;;5035187;28;20032;-89
2021/10/11 10:40:18;;;;;;;15.68;2.30;;;;;;;;;;5035502;28;20029;-89
2021/10/11 10:42:44;;;;;;;14.70;2.20;;;;;;;;;;5035093;28;20772;-89
2021/10/11 10:45:16;;;;;;;14.32;2.03;;;;;;;;;;5017049;28;20087;-89
2021/10/11 10:47:41;;;;;;;10.93;2.50;;;;;;;;;;5017611;28;20045;-89
2021/10/11 10:50:12;;;;;;;16.92;2.75;;;;;;;;;;5034671;28;20056;-89
2021/10/11 10:52:37;;;;;;;17.73;3.05;;;;;;;;;;5017447;28;20049;-89
2021/10/11 10:55:03;;;;;;;14.03;3.43;;;;;;;;;;5034169;28;20579;-89
2021/10/11 10:57:29;;;;;;;10.75;2.65;;;;;;;;;;5014438;28;20021;-89
2021/10/11 10:59:56;;;;;;;16.90;3.22;;;;;;;;;;5032507;28;20125;-89
2021/10/11 11:02:21;;;;;;;15.50;3.38;;;;;;;;;;5014773;28;20045;-89
2021/10/11 11:04:55;;;;;;;14.88;3.00;;;;;;;;;;5034280;28;20084;-89
2021/10/11 11:07:24;;;;;;;14.27;3.25;;;;;;;;;;5017333;28;20013;-89
2021/10/11 11:09:49;;;;;;;15.27;2.80;;;;;;;;;;5046328;28;20033;-88
2021/10/11 11:12:26;;;;;;;16.60;2.88;;;;;;;;;;5027050;28;20107;-89
2021/10/11 11:14:52;;;;;;;16.80;2.70;;;;;;;;;;5030237;28;20107;-89
2021/10/11 11:17:26;;;;;;;12.30;2.17;;;;;;;;;;5048489;28;20574;-89
2021/10/11 11:19:51;;;;;;;12.70;2.33;;;;;;;;;;5051994;28;20020;-89
2021/10/11 11:22:26;;;;;;;19.27;2.83;;;;;;;;;;5055213;28;20053;-89
2021/10/11 11:24:51;;;;;;;16.02;2.95;;;;;;;;;;5056291;28;20267;-89
2021/10/11 11:27:46;;;;;;;18.58;2.63;;;;;;;;;;5055801;28;20128;-89
2021/10/11 11:30:15;;;;;;;28.75;4.38;;;;;;;;;;5013496;28;20059;-90
2021/10/11 11:32:52;;;;;;;11.68;2.72;;;;;;;;;;5033794;28;20392;-90
2021/10/11 11:35:24;;;;;;;14.32;2.40;;;;;;;;;;5034761;28;20109;-89
2021/10/11 11:37:51;;;;;;;12.88;2.40;;;;;;;;;;5034589;28;20025;-89
2021/10/11 11:40:18;;;;;;;18.52;3.47;;;;;;;;;;5046280;28;20021;-89
2021/10/11 11:42:44;;;;;;;22.48;2.60;;;;;;;;;;5036319;28;20024;-89
2021/10/11 11:45:10;;;;;;;19.13;3.25;;;;;;;;;;5032561;28;20017;-89
2021/10/11 11:47:35;;;;;;;23.00;3.83;;;;;;;;;;5015982;28;20036;-89
2021/10/11 11:50:00;;;;;;;20.63;3.42;;;;;;;;;;5016058;28;20021;-89
2021/10/11 11:52:33;;;;;;;16.30;2.97;;;;;;;;;;5032219;28;20021;-89
2021/10/11 11:54:58;;;;;;;15.63;2.80;;;;;;;;;;5016168;28;20271;-89
2021/10/11 11:57:24;;;;;;;16.90;3.10;;;;;;;;;;5036484;28;20021;-89
2021/10/11 11:59:49;;;;;;;38.72;3.78;;;;;;;;;;5052991;28;20028;-90
2021/10/11 12:02:19;;;;;;;64.50;4.63;;;;;;;;;;5029874;28;20476;-90
2021/10/11 12:04:46;;;;;;;12.60;1.40;;;;;;;;;;5029817;28;20113;-90
2021/10/11 12:07:11;;;;;;;8.30;1.40;;;;;;;;;;5025207;28;20420;-90
2021/10/11 12:09:37;;;;;;;12.35;1.75;;;;;;;;;;5035316;28;20032;-90
2021/10/11 12:12:05;;;;;;;18.58;3.38;;;;;;;;;;5035693;28;20368;-90
2021/10/11 12:14:33;;;;;;;17.45;2.65;;;;;;;;;;5029982;23;20053;-90
2021/10/11 12:17:08;;;;;;;19.53;2.67;;;;;;;;;;5015179;28;20080;-89
2021/10/11 12:19:39;;;;;;;17.38;2.17;;;;;;;;;;5014199;28;20338;-89
2021/10/11 12:22:04;;;;;;;10.97;2.03;;;;;;;;;;5014204;28;20028;-89
2021/10/11 12:24:33;;;;;;;19.67;3.30;;;;;;;;;;5015136;28;20116;-88
2021/10/11 12:27:00;;;;;;;13.50;2.70;;;;;;;;;;5015332;28;20804;-89
2021/10/11 12:29:27;;;;;;;12.82;2.38;;;;;;;;;;5015366;28;20788;-89
2021/10/11 12:31:56;;;;;;;12.82;2.00;;;;;;;;;;5013462;28;20026;-89
2021/10/11 12:34:26;;;;;;;19.67;3.75;;;;;;;;;;5014508;28;20063;-89
2021/10/11 12:36:52;;;;;;;12.15;1.75;;;;;;;;;;5015259;28;20053;-89
2021/10/11 12:39:19;;;;;;;13.90;2.22;;;;;;;;;;5013209;28;20669;-89
2021/10/11 12:41:48;;;;;;;14.27;2.42;;;;;;;;;;5014632;28;20991;-89
2021/10/11 12:47:08;;;;;;;12.13;2.20;;;;;;;;;;5017768;28;20580;-88
2021/10/11 12:49:37;;;;;;;14.30;2.42;;;;;;;;;;5015533;28;20025;-88
2021/10/11 12:52:03;;;;;;;11.88;2.53;;;;;;;;;;5014320;28;20070;-89
2021/10/11 12:54:30;;;;;;;12.85;2.72;;;;;;;;;;5013432;28;20029;-89
2021/10/11 12:56:56;;;;;;;14.90;3.90;;;;;;;;;;5013425;28;20033;-89
2021/10/11 12:59:22;;;;;;;9.13;2.90;;;;;;;;;;5032890;28;20172;-89
2021/10/11 13:01:50;;;;;;;12.63;2.97;;;;;;;;;;5014581;28;20505;-89
2021/10/11 13:04:16;;;;;;;8.82;2.20;;;;;;;;;;5031529;28;20024;-89
2021/10/11 13:06:44;;;;;;;14.10;3.47;;;;;;;;;;5030261;28;20034;-89
2021/10/11 13:09:09;;;;;;;13.45;3.17;;;;;;;;;;5014883;28;20132;-89
2021/10/11 13:11:34;;;;;;;7.70;2.67;;;;;;;;;;5015361;28;20187;-89
2021/10/11 13:14:00;;;;;;;8.97;2.37;;;;;;;;;;5014841;28;20045;-89
2021/10/11 13:16:25;;;;;;;11.15;2.45;;;;;;;;;;5031241;28;20327;-89
2021/10/11 13:18:50;;;;;;;12.02;2.47;;;;;;;;;;5012703;28;20041;-89
2021/10/11 13:21:15;;;;;;;12.60;2.83;;;;;;;;;;5015043;28;20009;-89
2021/10/11 13:23:42;;;;;;;15.20;2.77;;;;;;;;;;5031163;28;20025;-89
2021/10/11 13:26:08;;;;;;;13.75;3.03;;;;;;;;;;5032836;28;20016;-89
2021/10/11 13:28:37;;;;;;;12.88;3.38;;;;;;;;;;5012897;28;20511;-89
2021/10/11 14:27:48;;;;;;;16.52;3.30;;;;;;;;;;5032789;28;20032;-89
2021/10/11 16:00:18;;;;;;;13.95;2.65;;;;;;;;;;5031706;28;20036;-88
2021/10/11 16:02:45;;;;;;;13.38;2.55;;;;;;;;;;5042571;28;20006;-88
2021/10/11 16:05:13;;;;;;;8.60;2.08;;;;;;;;;;5017743;28;20034;-88
2021/10/11 16:07:40;;;;;;;14.30;2.45;;;;;;;;;;5030759;28;20036;-88
2021/10/11 16:10:06;;;;;;;11.85;3.10;;;;;;;;;;5013448;28;20021;-88
2021/10/11 16:12:31;;;;;;;16.40;3.08;;;;;;;;;;5013174;28;20436;-88
2021/10/11 16:14:56;;;;;;;14.32;2.72;;;;;;;;;;5030953;28;20026;-89
2021/10/11 16:17:22;;;;;;;10.40;3.03;;;;;;;;;;5014050;28;20179;-88
2021/10/11 16:19:47;;;;;;;12.07;2.78;;;;;;;;;;5013321;28;20272;-89
2021/10/11 16:22:12;;;;;;;10.17;2.23;;;;;;;;;;5030509;28;20535;-89
2021/10/11 16:24:37;;;;;;;11.13;2.22;;;;;;;;;;5052633;28;20291;-88
2021/10/11 16:27:03;;;;;;;12.98;2.97;;;;;;;;;;5036497;28;20029;-88
2021/10/11 16:29:28;;;;;;;9.23;2.17;;;;;;;;;;5031471;28;20039;-89
2021/10/11 16:31:53;;;;;;;14.43;3.35;;;;;;;;;;5046402;28;20101;-90
2021/10/11 16:34:22;;;;;;;9.68;2.10;;;;;;;;;;5030980;28;20029;-89
2021/10/11 16:36:48;;;;;;;10.18;2.47;;;;;;;;;;5029302;28;20389;-89
2021/10/11 16:39:13;;;;;;;8.30;2.58;;;;;;;;;;5029619;28;20026;-89
2021/10/11 16:41:39;;;;;;;14.95;2.75;;;;;;;;;;5029560;28;20741;-90
2021/10/11 16:44:04;;;;;;;12.45;2.88;;;;;;;;;;5029276;28;20442;-89
2021/10/11 16:46:29;;;;;;;10.57;2.90;;;;;;;;;;5029503;28;20465;-88
2021/10/11 16:48:55;;;;;;;21.00;3.65;;;;;;;;;;5029740;28;20037;-89
2021/10/11 16:51:20;;;;;;;15.32;2.35;;;;;;;;;;5029999;28;20091;-89
2021/10/11 16:56:29;;;;;;;8.13;2.67;;;;;;;;;;5051380;28;20111;-88
2021/10/11 16:58:55;;;;;;;17.65;3.42;;;;;;;;;;5033661;28;20487;-89
2021/10/11 17:01:20;;;;;;;12.73;2.70;;;;;;;;;;5050978;28;20055;-89
2021/10/11 17:03:45;;;;;;;14.00;2.92;;;;;;;;;;5033188;28;20020;-89
2021/10/11 17:06:10;;;;;;;19.50;2.95;;;;;;;;;;5051029;28;20029;-88
2021/10/11 17:08:36;;;;;;;11.63;2.70;;;;;;;;;;5033183;28;20039;-89